Latest Weather Observations for Lake Julius

IDQ60801

Issued at 5:02 pm EST Tuesday 24 January 2017 (issued every 30 minutes, with the page automatically refreshed every 10 minutes)

About weather observations | Map of weather stations | Latest weather observations for QLD | Other Formats
Station Details ID: 029181 Name: LAKE JULIUS AWS Lat: -20.12 Lon: 139.73 Height: 237.0 m
Data from the previous 72 hours. | See also: Recent months at Lake Julius
Date/Time
EST
Temp
°C
App
Temp
°C
Dew
Point
°C
Rel
Hum
%
Delta-T
°C
Wind Press
QNH
hPa
Press
MSL
hPa
Rain since
9am
mm
Dir  Spd
km/h
Gust
km/h
Spd
kts
Gust
kts
24/05:00pm 34.1 35.2 20.5 45 9.2 NNE 15 24 8 13 - - 0.0
24/04:30pm 34.2 34.8 21.3 47 8.8 NNE 20 30 11 16 - - 0.0
24/04:00pm 33.9 35.0 21.3 47 8.6 NNE 17 26 9 14 - - 0.0
24/03:30pm 33.8 34.9 21.2 47 8.6 ENE 17 26 9 14 - - 0.0
24/03:00pm 33.9 35.2 21.7 49 8.4 NNE 17 26 9 14 - - 0.0
24/02:30pm 33.8 34.8 22.2 50 8.0 NNE 20 30 11 16 - - 0.0
24/02:00pm 33.4 35.3 22.8 53 7.4 NNE 17 24 9 13 - - 0.0
24/01:30pm 32.3 34.0 22.4 56 6.8 NNE 17 26 9 14 - - 0.0
24/01:00pm 33.6 35.5 22.7 53 7.6 NE 17 24 9 13 - - 0.0
24/12:30pm 32.3 33.9 22.1 55 7.0 NE 17 26 9 14 - - 0.0
24/12:00pm 31.3 34.3 23.4 63 5.5 N 13 20 7 11 - - 0.0
24/11:30am 32.2 36.5 24.3 63 5.6 NNE 9 17 5 9 - - 0.0
24/11:00am 31.2 34.3 24.1 66 5.0 NE 15 28 8 15 - - 0.0
24/10:30am 30.3 34.6 24.2 70 4.3 NE 9 20 5 11 - - 0.0
24/10:00am 29.3 33.1 24.0 73 3.7 N 11 17 6 9 - - 0.0
24/09:30am 28.5 33.5 24.5 79 2.8 NE 6 9 3 5 - - 0.0
24/09:00am 28.1 32.0 24.3 80 2.7 NE 11 19 6 10 - - 16.0
24/08:30am 26.9 30.8 24.2 85 1.9 NNE 11 19 6 10 - - 16.0
24/08:00am 26.9 31.0 24.0 84 2.0 NE 9 17 5 9 - - 16.0
24/07:30am 26.7 31.9 24.2 86 1.7 NE 4 6 2 3 - - 16.0
24/07:00am 25.4 30.5 24.0 92 1.0 NNE 4 7 2 4 - - 16.0
24/06:30am 25.0 30.8 24.0 94 0.7 CALM 0 2 0 1 - - 16.0
24/06:00am 25.1 31.1 24.2 95 0.6 CALM 0 0 0 0 - - 16.0
24/05:30am 25.2 31.2 24.2 94 0.7 CALM 0 0 0 0 - - 16.0
24/05:00am 25.3 31.2 24.1 93 0.8 CALM 0 0 0 0 - - 16.0
24/04:30am 25.4 31.5 24.4 94 0.7 CALM 0 0 0 0 - - 16.0
24/04:00am 25.4 31.4 24.2 93 0.8 CALM 0 2 0 1 - - 16.0
24/03:30am 25.2 30.6 24.5 96 0.5 NNE 4 6 2 3 - - 16.0
24/03:00am 25.3 31.4 24.4 95 0.6 CALM 0 0 0 0 - - 16.0
24/02:30am 25.4 31.7 24.7 96 0.5 CALM 0 0 0 0 - - 16.0
24/02:00am 25.4 31.5 24.5 95 0.6 CALM 0 0 0 0 - - 16.0
24/01:30am 25.6 31.9 24.7 95 0.6 CALM 0 0 0 0 - - 16.0
24/01:00am 25.7 32.0 24.7 94 0.7 CALM 0 0 0 0 - - 16.0
24/12:30am 25.7 32.0 24.8 95 0.6 CALM 0 0 0 0 - - 16.0
24/12:00am 25.9 32.2 24.7 93 0.8 CALM 0 0 0 0 - - 16.0
 
Date/Time
EST
Temp
°C
App
Temp
°C
Dew
Point
°C
Rel
Hum
%
Delta-T
°C
Wind Press
QNH
hPa
Press
MSL
hPa
Rain since
9am
mm
Dir  Spd
km/h
Gust
km/h
Spd
kts
Gust
kts
23/11:30pm 25.9 32.2 24.7 93 0.8 CALM 0 0 0 0 - - 16.0
23/11:00pm 26.1 32.1 24.3 90 1.3 CALM 0 0 0 0 - - 16.0
23/10:30pm 26.2 32.5 24.8 92 1.0 CALM 0 0 0 0 - - 16.0
23/10:00pm 26.4 32.4 24.2 88 1.5 CALM 0 0 0 0 - - 16.0
23/09:30pm 26.7 32.5 24.0 85 1.9 CALM 0 0 0 0 - - 16.0
23/09:00pm 26.9 32.4 24.0 84 2.0 N 2 4 1 2 - - 16.0
23/08:30pm 26.6 32.8 24.6 89 1.4 CALM 0 0 0 0 - - 16.0
23/08:00pm 26.8 32.9 24.5 87 1.6 CALM 0 0 0 0 - - 16.0
23/07:30pm 26.9 33.2 24.7 88 1.5 CALM 0 0 0 0 - - 16.0
23/07:00pm 27.0 33.3 24.8 88 1.5 CALM 0 0 0 0 - - 16.0
23/06:30pm 26.9 33.0 24.4 86 1.7 CALM 0 0 0 0 - - 16.0
23/06:00pm 26.8 32.4 24.3 86 1.7 N 2 6 1 3 - - 16.0
23/05:30pm 26.7 30.5 24.0 85 1.9 NNE 11 17 6 9 - - 16.0
23/05:00pm 26.2 31.0 24.4 90 1.3 N 7 13 4 7 - - 16.0
23/04:30pm 25.4 26.9 23.1 87 1.6 N 20 37 11 20 - - 15.8
23/04:19pm 27.4 29.3 22.8 76 3.1 E 17 46 9 25 - - 11.2
23/04:00pm 33.1 36.5 23.4 56 6.8 ENE 11 20 6 11 - - 5.0
23/03:30pm 32.8 36.6 23.4 57 6.6 ENE 9 15 5 8 - - 5.0
23/03:00pm 31.7 34.5 23.0 60 6.0 NE 13 19 7 10 - - 5.0
23/02:30pm 30.6 34.7 23.3 65 5.1 N 7 15 4 8 - - 5.0
23/02:00pm 29.1 34.5 25.1 79 2.8 NNE 6 7 3 4 - - 4.8
23/01:30pm 27.7 33.6 24.1 81 2.5 CALM 0 0 0 0 - - 4.8
23/01:00pm 26.4 31.0 24.1 87 1.6 N 7 9 4 5 - - 4.8
23/12:30pm 25.9 29.6 24.5 92 1.0 NE 13 24 7 13 - - 4.8
23/12:06pm 27.8 27.0 23.4 77 3.0 NE 33 52 18 28 - - 0.0
23/12:00pm 29.3 29.5 22.0 64 5.0 NE 24 52 13 28 - - 0.0
23/11:58am 30.9 32.1 22.2 59 6.0 NE 19 48 10 26 - - 0.0
23/11:30am 32.9 36.3 22.7 55 7.1 NNE 9 15 5 8 - - 0.0
23/11:00am 32.3 35.9 22.1 55 7.0 NNE 6 11 3 6 - - 0.0
23/10:30am 31.0 34.2 22.3 60 6.0 NNE 9 13 5 7 - - 0.0
23/10:00am 30.5 33.9 23.4 66 4.9 N 11 17 6 9 - - 0.0
23/09:30am 31.0 35.6 24.1 66 4.8 NE 7 13 4 7 - - 0.0
23/09:00am 29.8 34.6 23.5 69 4.4 NNE 4 7 2 4 - - 1.4
23/08:30am 29.1 34.3 24.2 75 3.4 NE 4 9 2 5 - - 1.4
23/08:00am 27.7 33.5 23.9 80 2.6 CALM 0 0 0 0 - - 1.4
23/07:30am 27.0 32.7 23.7 82 2.3 CALM 0 0 0 0 - - 1.4
23/07:00am 26.7 32.4 23.8 84 2.0 CALM 0 0 0 0 - - 1.4
23/06:30am 26.6 32.0 23.3 82 2.3 CALM 0 4 0 2 - - 1.4
23/06:00am 26.7 31.4 24.0 85 1.9 ENE 6 13 3 7 - - 1.4
23/05:30am 26.8 33.4 25.2 91 1.1 CALM 0 0 0 0 - - 1.2
23/05:00am 26.7 33.1 24.9 90 1.3 CALM 0 0 0 0 - - 1.2
23/04:30am 26.9 33.3 24.9 89 1.4 CALM 0 0 0 0 - - 1.2
23/04:00am 27.0 32.1 24.1 84 2.0 SSW 4 6 2 3 - - 1.2
23/03:30am 27.2 32.6 23.9 82 2.3 SSW 2 2 1 1 - - 1.2
23/03:00am 27.4 32.5 24.1 82 2.3 WSW 4 6 2 3 - - 1.2
23/02:30am 27.2 32.5 24.3 84 2.0 SSW 4 4 2 2 - - 1.2
23/02:00am 27.5 33.4 24.1 82 2.4 CALM 0 0 0 0 - - 1.2
23/01:30am 27.4 33.5 24.5 84 2.0 CALM 0 0 0 0 - - 1.2
23/01:00am 27.7 34.1 24.9 85 2.0 CALM 0 0 0 0 - - 1.2
23/12:30am 27.8 33.9 24.4 82 2.4 CALM 0 0 0 0 - - 1.2
23/12:00am 28.2 34.0 24.0 78 2.9 CALM 0 0 0 0 - - 1.2
 
Date/Time
EST
Temp
°C
App
Temp
°C
Dew
Point
°C
Rel
Hum
%
Delta-T
°C
Wind Press
QNH
hPa
Press
MSL
hPa
Rain since
9am
mm
Dir  Spd
km/h
Gust
km/h
Spd
kts
Gust
kts
22/11:30pm 28.2 34.4 24.6 81 2.5 CALM 0 0 0 0 - - 1.2
22/11:00pm 28.5 33.5 24.5 79 2.8 WSW 6 9 3 5 - - 1.2
22/10:30pm 28.4 35.0 25.2 83 2.3 CALM 0 4 0 2 - - 1.2
22/10:00pm 28.1 33.5 24.5 81 2.5 ENE 4 4 2 2 - - 1.2
22/09:30pm 28.3 31.6 23.2 74 3.5 S 11 17 6 9 - - 1.2
22/09:00pm 30.9 33.3 22.2 59 6.0 S 13 19 7 10 - - 0.0
22/08:30pm 31.9 33.8 22.0 55 6.8 SSW 15 24 8 13 - - 0.0
22/08:00pm 32.8 36.5 22.3 54 7.2 ENE 6 6 3 3 - - 0.0
22/07:30pm 33.0 36.5 21.8 51 7.7 NE 6 7 3 4 - - 0.0
22/07:00pm 33.8 37.2 21.6 49 8.3 NE 6 7 3 4 - - 0.0
22/06:30pm 34.2 36.1 21.3 47 8.8 NNE 13 19 7 10 - - 0.0
22/06:00pm 34.6 36.3 20.2 43 9.7 NNE 11 19 6 10 - - 0.0
22/05:30pm 35.0 36.9 21.3 45 9.4 NNE 13 20 7 11 - - 0.0
22/05:00pm 35.9 38.4 21.7 43 9.8 NNE 11 22 6 12 - - 0.0
22/04:30pm 35.3 37.1 21.2 44 9.6 N 13 20 7 11 - - 0.0
22/04:00pm 34.9 35.6 21.2 45 9.4 N 19 24 10 13 - - 0.0
22/03:30pm 34.1 34.8 21.5 47 8.6 NNE 20 30 11 16 - - 0.0
22/03:00pm 36.9 40.2 21.5 41 10.6 S 6 9 3 5 - - 0.0
22/02:30pm 36.6 40.0 22.0 43 10.1 S 7 11 4 6 - - 0.0
22/02:00pm 36.1 39.0 21.1 41 10.3 S 7 11 4 6 - - 0.0
22/01:30pm 34.9 38.4 21.9 46 9.0 S 6 13 3 7 - - 0.0
22/01:00pm 35.8 40.3 23.7 49 8.5 E 6 11 3 6 - - 0.0
22/12:30pm 34.0 38.0 22.1 50 8.2 SW 4 9 2 5 - - 0.0
22/12:00pm 34.9 39.2 22.6 49 8.5 NE 4 9 2 5 - - 0.0
22/11:30am 34.6 38.7 23.0 51 8.1 ENE 6 13 3 7 - - 0.0
22/11:00am 34.3 38.3 22.7 50 8.1 NNE 6 9 3 5 - - 0.0
22/10:30am 33.1 37.9 22.8 54 7.1 SE 2 4 1 2 - - 0.0
22/10:00am 32.2 37.0 22.9 58 6.4 NE 2 6 1 3 - - 0.0
22/09:30am 31.8 36.5 23.3 60 5.9 ESE 4 6 2 3 - - 0.0
22/09:00am 31.1 36.1 23.2 63 5.5 SE 2 6 1 3 - - 0.0
22/08:30am 30.1 34.6 23.0 65 4.9 NW 4 6 2 3 - - 0.0
22/08:00am 29.8 35.4 23.5 69 4.4 CALM 0 0 0 0 - - 0.0
22/07:30am 28.6 34.0 23.3 73 3.7 CALM 0 0 0 0 - - 0.0
22/07:00am 28.1 33.8 23.7 77 3.1 CALM 0 0 0 0 - - 0.0
22/06:30am 28.5 33.2 22.7 71 4.0 NNW 2 6 1 3 - - 0.0
22/06:00am 28.2 33.3 22.7 72 3.8 CALM 0 2 0 1 - - 0.0
22/05:30am 28.8 33.2 22.8 70 4.1 NW 4 7 2 4 - - 0.0
22/05:00am 28.5 33.8 23.0 72 3.8 CALM 0 0 0 0 - - 0.0
22/04:30am 28.5 34.0 23.4 74 3.5 CALM 0 0 0 0 - - 0.0
22/04:00am 28.7 33.6 23.1 71 3.9 N 2 6 1 3 - - 0.0
22/03:30am 29.0 34.3 23.0 70 4.1 CALM 0 4 0 2 - - 0.0
22/03:00am 29.1 34.4 23.1 70 4.1 CALM 0 2 0 1 - - 0.0
22/02:30am 29.3 34.4 23.3 70 4.2 W 2 6 1 3 - - 0.0
22/02:00am 29.4 34.1 23.4 70 4.2 N 4 6 2 3 - - 0.0
22/01:30am 29.9 33.8 22.6 65 5.0 N 6 7 3 4 - - 0.0
22/01:00am 30.4 34.7 22.6 63 5.4 N 4 7 2 4 - - 0.0
22/12:30am 30.9 34.6 22.2 59 6.0 NNE 6 9 3 5 - - 0.0
22/12:00am 31.2 34.4 21.7 57 6.5 NNE 7 11 4 6 - - 0.0
 
Date/Time
EST
Temp
°C
App
Temp
°C
Dew
Point
°C
Rel
Hum
%
Delta-T
°C
Wind Press
QNH
hPa
Press
MSL
hPa
Rain since
9am
mm
Dir  Spd
km/h
Gust
km/h
Spd
kts
Gust
kts
21/11:30pm 31.5 34.6 21.4 55 6.9 NNE 7 13 4 7 - - 0.0
21/11:00pm 31.5 35.0 21.1 54 7.0 N 4 6 2 3 - - 0.0
21/10:30pm 32.2 35.2 20.8 51 7.7 N 6 13 3 7 - - 0.0
21/10:00pm 32.4 35.5 21.0 51 7.7 N 6 7 3 4 - - 0.0
21/09:30pm 32.7 35.6 20.6 49 8.2 N 6 9 3 5 - - 0.0
21/09:00pm 32.9 35.5 20.4 47 8.4 N 7 11 4 6 - - 0.0
21/08:30pm 33.4 35.9 20.2 46 8.9 NNE 7 9 4 5 - - 0.0
21/08:00pm 33.8 36.3 19.8 43 9.4 NNE 6 9 3 5 - - 0.0
21/07:30pm 34.3 35.8 18.8 40 10.2 NE 9 13 5 7 - - 0.0
21/07:00pm 34.9 36.2 18.5 38 10.8 NNE 9 15 5 8 - - 0.0
21/06:30pm 35.6 37.0 18.7 37 11.2 NNE 9 15 5 8 - - 0.0
21/06:00pm 36.2 37.6 18.7 35 11.6 NNE 9 15 5 8 - - 0.0
21/05:30pm 36.4 37.9 18.9 35 11.6 NE 9 13 5 7 - - 0.0

Other Formats:

Comma delimited format used in spreadsheet applications
http://www.bom.gov.au/fwo/IDQ60801/IDQ60801.94348.axf

JavaScript Object Notation format (JSON) in row-major order
http://www.bom.gov.au/fwo/IDQ60801/IDQ60801.94348.json